createdAt,value
2019-01-03T00:00:34.430Z,30.94
2019-01-03T00:01:34.425Z,31.45
2019-01-03T00:02:34.414Z,31.45
2019-01-03T00:03:34.394Z,31.45
2019-01-03T00:04:34.387Z,31.14
2019-01-03T00:05:34.379Z,31.14
2019-01-03T00:06:34.379Z,31.04
2019-01-03T00:07:34.377Z,31.34
2019-01-03T00:08:34.343Z,31.14
2019-01-03T00:09:34.336Z,31.14
2019-01-03T00:10:34.324Z,31.14
2019-01-03T00:11:34.310Z,31.24
2019-01-03T00:12:34.340Z,31.45
2019-01-03T00:13:34.296Z,31.34
2019-01-03T00:14:34.283Z,31.23
2019-01-03T00:15:34.269Z,30.54
2019-01-03T00:16:34.268Z,30.63
2019-01-03T00:17:34.256Z,30.64
2019-01-03T00:18:34.246Z,31.45
2019-01-03T00:19:34.228Z,31.45
2019-01-03T00:20:34.218Z,31.14
2019-01-03T00:21:34.220Z,31.54
2019-01-03T00:22:34.199Z,31.23
2019-01-03T00:23:34.183Z,30.93
2019-01-03T00:24:34.185Z,31.13
2019-01-03T00:25:34.168Z,31.13
2019-01-03T00:26:34.158Z,31.13
2019-01-03T00:27:34.155Z,31.43
2019-01-03T00:28:36.035Z,30.63
2019-01-03T00:29:34.129Z,31.13
2019-01-03T00:30:34.121Z,30.93
2019-01-03T00:31:34.110Z,31.23
2019-01-03T00:32:34.091Z,30.54
2019-01-03T00:33:34.105Z,31.23
2019-01-03T00:34:34.064Z,31.13
2019-01-03T00:35:34.068Z,31.23
2019-01-03T00:36:34.126Z,30.93
2019-01-03T00:37:34.033Z,30.64
2019-01-03T00:38:34.031Z,30.63
2019-01-03T00:39:34.021Z,31.45
2019-01-03T00:40:34.009Z,31.34
2019-01-03T00:41:34.007Z,31.45
2019-01-03T00:42:33.982Z,30.94
2019-01-03T00:43:33.987Z,31.24
2019-01-03T00:44:33.961Z,30.84
2019-01-03T00:45:33.962Z,30.74
2019-01-03T00:46:33.954Z,31.45
2019-01-03T00:47:33.942Z,31.54
2019-01-03T00:48:33.929Z,31.13
2019-01-03T00:49:33.924Z,30.52
2019-01-03T00:50:33.935Z,31.13
2019-01-03T00:51:33.891Z,31.23
2019-01-03T00:52:33.886Z,30.63
2019-01-03T00:53:33.877Z,31.13
2019-01-03T00:54:33.861Z,31.13
2019-01-03T00:55:33.846Z,31.13
2019-01-03T00:56:33.836Z,30.73
2019-01-03T00:57:33.819Z,30.83
2019-01-03T00:58:33.820Z,30.93
2019-01-03T00:59:33.813Z,30.73
2019-01-03T01:00:33.799Z,31.03
2019-01-03T01:01:33.784Z,31.33
2019-01-03T01:02:33.775Z,30.93
2019-01-03T01:03:33.772Z,30.93
2019-01-03T01:04:33.842Z,31.23
2019-01-03T01:05:33.862Z,31.13
2019-01-03T01:06:33.732Z,31.13
2019-01-03T01:07:33.717Z,30.83
2019-01-03T01:08:33.711Z,31.34
2019-01-03T01:09:33.698Z,31.23
2019-01-03T01:10:33.693Z,31.53
2019-01-03T01:11:33.687Z,30.84
2019-01-03T01:12:33.672Z,30.63
2019-01-03T01:13:33.657Z,30.93
2019-01-03T01:14:33.644Z,30.74
2019-01-03T01:15:33.642Z,31.13
2019-01-03T01:16:33.633Z,31.23
2019-01-03T01:17:33.618Z,31.45
2019-01-03T01:18:33.597Z,30.63
2019-01-03T01:19:33.602Z,31.14
2019-01-03T01:20:33.580Z,30.52
2019-01-03T01:21:33.574Z,31.14
2019-01-03T01:22:33.577Z,30.73
2019-01-03T01:23:33.553Z,30.93
2019-01-03T01:24:33.567Z,31.14
2019-01-03T01:25:33.534Z,30.84
2019-01-03T01:26:33.523Z,31.45
2019-01-03T01:27:33.508Z,31.24
2019-01-03T01:28:33.502Z,31.34
2019-01-03T01:29:33.532Z,31.34
2019-01-03T01:30:33.473Z,31.04
2019-01-03T01:31:33.467Z,31.65
2019-01-03T01:32:33.458Z,30.74
2019-01-03T01:33:33.468Z,30.84
2019-01-03T01:34:33.561Z,30.94
2019-01-03T01:35:33.454Z,32.15
2019-01-03T01:36:33.479Z,31.65
2019-01-03T01:37:33.496Z,31.24
2019-01-03T01:38:33.395Z,31.53
2019-01-03T01:39:33.379Z,31.65
2019-01-03T01:40:33.376Z,30.54
2019-01-03T01:41:33.506Z,31.24
2019-01-03T01:42:33.400Z,31.24
2019-01-03T01:43:33.417Z,31.45
2019-01-03T01:44:33.326Z,31.14
2019-01-03T01:45:33.322Z,31.45
2019-01-03T01:46:33.325Z,30.84
2019-01-03T01:47:33.307Z,31.24
2019-01-03T01:48:33.284Z,30.94
2019-01-03T01:49:33.273Z,31.14
2019-01-03T01:50:33.264Z,31.14
2019-01-03T01:51:33.246Z,31.45
2019-01-03T01:52:33.255Z,30.94
2019-01-03T01:53:33.239Z,31.45
2019-01-03T01:54:33.222Z,31.34
2019-01-03T01:55:33.215Z,31.45
2019-01-03T01:56:33.267Z,30.94
2019-01-03T01:57:33.202Z,31.45
2019-01-03T01:58:33.203Z,31.54
2019-01-03T01:59:33.178Z,31.04
2019-01-03T02:00:33.185Z,30.94
2019-01-03T02:01:33.158Z,31.14
2019-01-03T02:02:33.159Z,30.94
2019-01-03T02:03:33.167Z,30.64
2019-01-03T02:04:33.155Z,31.23
2019-01-03T02:05:33.121Z,31.54
2019-01-03T02:06:33.103Z,31.54
2019-01-03T02:07:33.102Z,31.33
2019-01-03T02:08:33.117Z,31.45
2019-01-03T02:09:33.094Z,31.24
2019-01-03T02:10:33.079Z,30.84
2019-01-03T02:11:33.092Z,31.65
2019-01-03T02:12:33.035Z,31.45
2019-01-03T02:13:33.035Z,30.94
2019-01-03T02:14:33.058Z,31.54
2019-01-03T02:15:33.022Z,31.65
2019-01-03T02:16:33.020Z,31.45
2019-01-03T02:17:33.019Z,31.34
2019-01-03T02:18:32.988Z,31.45
2019-01-03T02:19:33.005Z,31.45
2019-01-03T02:20:33.003Z,31.65
2019-01-03T02:21:32.962Z,31.24
2019-01-03T02:22:32.937Z,31.45
2019-01-03T02:23:32.918Z,31.45
2019-01-03T02:24:32.913Z,31.45
2019-01-03T02:25:32.911Z,30.63
2019-01-03T02:26:32.904Z,31.73
2019-01-03T02:27:32.881Z,31.33
2019-01-03T02:28:32.883Z,30.64
2019-01-03T02:29:32.868Z,31.45
2019-01-03T02:30:32.845Z,31.34
2019-01-03T02:31:32.842Z,31.45
2019-01-03T02:32:32.843Z,31.45
2019-01-03T02:33:32.855Z,31.04
2019-01-03T02:34:32.829Z,31.14
2019-01-03T02:35:32.808Z,31.04
2019-01-03T02:36:32.846Z,31.33
2019-01-03T02:37:32.769Z,31.43
2019-01-03T02:38:32.765Z,31.33
2019-01-03T02:39:32.777Z,31.14
2019-01-03T02:40:32.751Z,31.45
2019-01-03T02:41:33.585Z,31.34
2019-01-03T02:42:32.724Z,31.54
2019-01-03T02:43:32.711Z,31.45
2019-01-03T02:44:32.706Z,31.34
2019-01-03T02:45:32.726Z,31.14
2019-01-03T02:46:32.687Z,30.84
2019-01-03T02:47:32.683Z,30.74
2019-01-03T02:48:32.651Z,30.83
2019-01-03T02:49:32.674Z,31.13
2019-01-03T02:50:32.649Z,31.53
2019-01-03T02:51:32.658Z,31.33
2019-01-03T02:52:32.624Z,31.54
2019-01-03T02:53:32.617Z,31.14
2019-01-03T02:54:32.606Z,31.54
2019-01-03T02:55:32.586Z,31.65
2019-01-03T02:56:32.587Z,31.54
2019-01-03T02:57:32.570Z,30.94
2019-01-03T02:58:32.597Z,31.65
2019-01-03T02:59:32.548Z,30.94
2019-01-03T03:00:32.535Z,31.04
2019-01-03T03:01:32.517Z,31.24
2019-01-03T03:02:32.509Z,30.94
2019-01-03T03:03:32.512Z,31.04
2019-01-03T03:04:32.484Z,31.65
2019-01-03T03:05:32.471Z,31.65
2019-01-03T03:06:32.471Z,31.14
2019-01-03T03:07:32.498Z,31.14
2019-01-03T03:08:32.447Z,31.14
2019-01-03T03:09:32.433Z,30.94
2019-01-03T03:10:32.426Z,31.24
2019-01-03T03:11:32.414Z,31.23
2019-01-03T03:12:32.421Z,31.23
2019-01-03T03:13:32.388Z,31.14
2019-01-03T03:14:32.381Z,30.94
2019-01-03T03:15:32.377Z,31.23
2019-01-03T03:16:32.394Z,30.94
2019-01-03T03:17:32.346Z,31.04
2019-01-03T03:18:32.361Z,31.14
2019-01-03T03:19:32.355Z,31.24
2019-01-03T03:20:32.313Z,30.94
2019-01-03T03:21:32.297Z,31.14
2019-01-03T03:22:32.290Z,31.54
2019-01-03T03:23:32.272Z,31.53
2019-01-03T03:24:32.265Z,31.33
2019-01-03T03:25:32.265Z,31.24
2019-01-03T03:26:32.251Z,31.23
2019-01-03T03:27:32.232Z,30.52
2019-01-03T03:28:32.229Z,31.43
2019-01-03T03:29:32.216Z,30.73
2019-01-03T03:30:32.206Z,31.45
2019-01-03T03:31:32.189Z,31.24
2019-01-03T03:32:32.186Z,31.23
2019-01-03T03:33:32.187Z,31.14
2019-01-03T03:34:32.154Z,30.63
2019-01-03T03:35:32.153Z,31.23
2019-01-03T03:36:32.144Z,31.43
2019-01-03T03:37:32.124Z,31.53
2019-01-03T03:38:32.119Z,30.54
2019-01-03T03:39:32.106Z,31.14
2019-01-03T03:40:32.100Z,30.94
2019-01-03T03:41:32.098Z,30.74
2019-01-03T03:42:32.072Z,31.34
2019-01-03T03:43:32.078Z,31.14
2019-01-03T03:44:32.078Z,30.73
2019-01-03T03:45:32.059Z,31.03
2019-01-03T03:46:32.048Z,31.34
2019-01-03T03:47:32.028Z,30.93
2019-01-03T03:48:32.004Z,31.04
2019-01-03T03:49:32.005Z,31.65
2019-01-03T03:50:31.989Z,30.84
2019-01-03T03:51:31.980Z,31.14
2019-01-03T03:52:31.972Z,31.65
2019-01-03T03:53:31.975Z,31.65
2019-01-03T03:54:31.945Z,31.24
2019-01-03T03:55:31.937Z,31.54
2019-01-03T03:56:31.938Z,31.34
2019-01-03T03:57:31.960Z,31.04
2019-01-03T03:58:31.920Z,31.14
2019-01-03T03:59:32.015Z,31.65
2019-01-03T04:00:31.980Z,31.85
2019-01-03T04:01:31.895Z,31.65
2019-01-03T04:02:31.863Z,31.85
2019-01-03T04:03:31.853Z,31.04
2019-01-03T04:04:31.886Z,31.14
2019-01-03T04:05:31.823Z,31.14
2019-01-03T04:06:31.884Z,31.34
2019-01-03T04:07:31.810Z,30.94
2019-01-03T04:08:31.792Z,31.34
2019-01-03T04:09:31.808Z,31.24
2019-01-03T04:10:31.788Z,31.54
2019-01-03T04:11:31.774Z,31.45
2019-01-03T04:12:31.757Z,31.65
2019-01-03T04:13:31.751Z,31.24
2019-01-03T04:14:31.741Z,31.04
2019-01-03T04:15:31.728Z,31.04
2019-01-03T04:16:31.712Z,31.04
2019-01-03T04:17:31.698Z,31.63
2019-01-03T04:18:31.687Z,31.45
2019-01-03T04:19:31.739Z,31.53
2019-01-03T04:20:31.673Z,31.33
2019-01-03T04:21:31.673Z,31.33
2019-01-03T04:22:31.654Z,31.03
2019-01-03T04:23:31.642Z,31.04
2019-01-03T04:24:31.640Z,30.94
2019-01-03T04:25:31.611Z,30.94
2019-01-03T04:26:31.603Z,31.24
2019-01-03T04:27:31.605Z,31.65
2019-01-03T04:28:31.580Z,31.43
2019-01-03T04:29:31.584Z,31.14
2019-01-03T04:30:31.559Z,31.24
2019-01-03T04:31:31.648Z,31.14
2019-01-03T04:32:31.554Z,31.33
2019-01-03T04:33:31.529Z,31.14
2019-01-03T04:34:31.510Z,31.23
2019-01-03T04:35:31.510Z,31.65
2019-01-03T04:36:31.493Z,31.33
2019-01-03T04:37:31.484Z,31.65
2019-01-03T04:38:31.470Z,31.13
2019-01-03T04:39:31.461Z,31.33
2019-01-03T04:40:31.455Z,30.93
2019-01-03T04:41:31.509Z,31.43
2019-01-03T04:42:31.436Z,31.13
2019-01-03T04:43:31.423Z,31.24
2019-01-03T04:44:31.412Z,31.33
2019-01-03T04:45:31.435Z,31.13
2019-01-03T04:46:31.388Z,31.23
2019-01-03T04:47:31.376Z,31.53
2019-01-03T04:48:31.432Z,31.43
2019-01-03T04:49:31.369Z,30.94
2019-01-03T04:50:31.346Z,31.54
2019-01-03T04:51:31.333Z,31.85
2019-01-03T04:52:31.325Z,31.95
2019-01-03T04:53:31.316Z,31.45
2019-01-03T04:54:31.319Z,31.04
2019-01-03T04:55:31.286Z,31.34
2019-01-03T04:56:31.280Z,31.23
2019-01-03T04:57:31.270Z,30.93
2019-01-03T04:58:31.360Z,30.83
2019-01-03T04:59:31.246Z,31.43
2019-01-03T05:00:31.239Z,31.23
2019-01-03T05:01:31.231Z,31.13
2019-01-03T05:02:31.221Z,31.34
2019-01-03T05:03:31.209Z,31.65
2019-01-03T05:04:31.198Z,32.05
2019-01-03T05:05:31.186Z,31.43
2019-01-03T05:06:31.176Z,31.33
2019-01-03T05:07:31.166Z,31.63
2019-01-03T05:08:31.165Z,31.33
2019-01-03T05:09:31.139Z,31.31
2019-01-03T05:10:31.129Z,30.91
2019-01-03T05:11:31.122Z,31.01
2019-01-03T05:12:31.115Z,30.90
2019-01-03T05:13:31.109Z,30.88
2019-01-03T05:14:31.100Z,30.78
2019-01-03T05:15:31.080Z,31.07
2019-01-03T05:16:31.071Z,29.66
2019-01-03T05:17:31.066Z,30.05
2019-01-03T05:18:32.019Z,29.35
2019-01-03T05:19:31.038Z,29.75
2019-01-03T05:20:31.059Z,30.45
2019-01-03T05:21:31.013Z,30.26
2019-01-03T05:22:31.003Z,30.34
2019-01-03T05:23:31.017Z,29.53
2019-01-03T05:24:30.978Z,29.44
2019-01-03T05:25:30.981Z,28.92
2019-01-03T05:26:30.983Z,29.12
2019-01-03T05:27:30.955Z,29.12
2019-01-03T05:28:30.943Z,29.31
2019-01-03T05:29:30.937Z,28.41
2019-01-03T05:30:30.924Z,28.61
2019-01-03T05:31:30.916Z,28.81
2019-01-03T05:32:30.903Z,28.81
2019-01-03T05:33:30.886Z,28.81
2019-01-03T05:34:30.880Z,28.61
2019-01-03T05:35:30.883Z,28.80
2019-01-03T05:36:30.869Z,29.11
2019-01-03T05:37:30.842Z,28.80
2019-01-03T05:38:30.838Z,28.80
2019-01-03T05:39:30.829Z,29.00
2019-01-03T05:40:30.840Z,28.09
2019-01-03T05:41:30.896Z,28.39
2019-01-03T05:42:30.811Z,28.89
2019-01-03T05:43:30.784Z,28.39
2019-01-03T05:44:30.767Z,28.19
2019-01-03T05:45:30.767Z,29.00
2019-01-03T05:46:30.753Z,28.80
2019-01-03T05:47:30.745Z,28.51
2019-01-03T05:48:30.744Z,28.71
2019-01-03T05:49:30.726Z,28.81
2019-01-03T05:50:30.711Z,28.51
2019-01-03T05:51:30.714Z,29.02
2019-01-03T05:52:30.701Z,29.22
2019-01-03T05:53:30.683Z,29.02
2019-01-03T05:54:30.669Z,28.94
2019-01-03T05:55:30.656Z,28.94
2019-01-03T05:56:30.648Z,29.53
2019-01-03T05:57:30.637Z,29.94
2019-01-03T05:58:30.714Z,30.05
2019-01-03T05:59:30.631Z,29.36
2019-01-03T06:00:30.608Z,29.77
2019-01-03T06:01:30.593Z,29.88
2019-01-03T06:02:30.599Z,30.48
2019-01-03T06:03:30.727Z,29.78
2019-01-03T06:04:30.568Z,30.60
2019-01-03T06:05:30.555Z,31.00
2019-01-03T06:06:30.551Z,31.21
2019-01-03T06:07:30.532Z,31.31
2019-01-03T06:08:30.526Z,31.21
2019-01-03T06:09:30.521Z,31.63
2019-01-03T06:10:30.499Z,31.13
2019-01-03T06:11:30.668Z,31.13
2019-01-03T06:12:30.485Z,31.23
2019-01-03T06:13:30.477Z,31.93
2019-01-03T06:14:30.463Z,32.24
2019-01-03T06:15:30.451Z,32.35
2019-01-03T06:16:30.444Z,31.95
2019-01-03T06:17:30.428Z,31.95
2019-01-03T06:18:30.411Z,32.24
2019-01-03T06:19:30.580Z,31.95
2019-01-03T06:20:30.391Z,32.15
2019-01-03T06:21:30.379Z,32.03
2019-01-03T06:22:30.389Z,32.14
2019-01-03T06:23:30.362Z,31.13
2019-01-03T06:24:30.350Z,31.21
2019-01-03T06:25:30.409Z,30.81
2019-01-03T06:26:30.345Z,31.01
2019-01-03T06:27:30.351Z,31.10
2019-01-03T06:28:30.323Z,30.90
2019-01-03T06:29:30.295Z,31.30
2019-01-03T06:30:30.283Z,30.88
2019-01-03T06:31:30.279Z,30.58
2019-01-03T06:32:30.265Z,30.67
2019-01-03T06:33:30.272Z,30.47
2019-01-03T06:34:30.257Z,31.17
2019-01-03T06:35:30.239Z,29.86
2019-01-03T06:36:35.977Z,29.75
2019-01-03T06:37:31.208Z,29.75
2019-01-03T06:38:30.199Z,30.05
2019-01-03T06:39:30.195Z,30.15
2019-01-03T06:40:30.185Z,30.15
2019-01-03T06:41:30.167Z,29.94
2019-01-03T06:42:30.162Z,30.34
2019-01-03T06:43:30.149Z,30.24
2019-01-03T06:44:30.142Z,30.04
2019-01-03T06:45:30.135Z,29.93
2019-01-03T06:46:30.139Z,29.32
2019-01-03T06:47:30.163Z,28.72
2019-01-03T06:48:30.096Z,29.02
2019-01-03T06:49:30.078Z,29.32
2019-01-03T06:50:30.072Z,28.92
2019-01-03T06:51:30.076Z,29.02
2019-01-03T06:52:30.069Z,29.32
2019-01-03T06:53:30.051Z,29.02
2019-01-03T06:54:30.041Z,29.02
2019-01-03T06:55:30.023Z,29.32
2019-01-03T06:56:30.014Z,28.52
2019-01-03T06:57:30.014Z,28.92
2019-01-03T06:58:30.010Z,29.52
2019-01-03T06:59:30.016Z,29.12
2019-01-03T07:00:29.969Z,29.84
2019-01-03T07:01:29.973Z,30.04
2019-01-03T07:02:29.955Z,30.24
2019-01-03T07:03:29.953Z,30.14
2019-01-03T07:04:29.931Z,30.24
2019-01-03T07:05:29.918Z,29.94
2019-01-03T07:06:29.910Z,30.34
2019-01-03T07:07:29.898Z,30.44
2019-01-03T07:08:29.914Z,30.14
2019-01-03T07:09:29.880Z,29.53
2019-01-03T07:10:29.870Z,29.95
2019-01-03T07:11:29.882Z,29.65
2019-01-03T07:12:29.848Z,29.45
2019-01-03T07:13:29.830Z,30.05
2019-01-03T07:14:29.864Z,30.07
2019-01-03T07:15:29.821Z,30.07
2019-01-03T07:16:29.805Z,30.57
2019-01-03T07:17:29.789Z,30.16
2019-01-03T07:18:29.786Z,29.57
2019-01-03T07:19:29.774Z,30.16
2019-01-03T07:20:29.765Z,29.36
2019-01-03T07:21:29.764Z,30.28
2019-01-03T07:22:29.756Z,30.50
2019-01-03T07:23:29.726Z,30.80
2019-01-03T07:24:29.727Z,31.51
2019-01-03T07:25:29.723Z,31.41
2019-01-03T07:26:29.698Z,31.01
2019-01-03T07:27:29.700Z,31.41
2019-01-03T07:28:29.682Z,30.93
2019-01-03T07:29:29.674Z,30.52
2019-01-03T07:30:29.658Z,31.33
2019-01-03T07:31:29.666Z,31.53
2019-01-03T07:32:29.634Z,31.43
2019-01-03T07:33:29.628Z,31.33
2019-01-03T07:34:29.630Z,31.23
2019-01-03T07:35:29.599Z,31.63
2019-01-03T07:36:29.591Z,31.03
2019-01-03T07:37:29.582Z,30.83
2019-01-03T07:38:29.582Z,30.93
2019-01-03T07:39:29.701Z,32.14
2019-01-03T07:40:29.551Z,31.74
2019-01-03T07:41:29.547Z,31.85
2019-01-03T07:42:29.537Z,32.35
2019-01-03T07:43:29.528Z,32.15
2019-01-03T07:44:29.526Z,32.24
2019-01-03T07:45:29.499Z,32.35
2019-01-03T07:46:29.495Z,31.85
2019-01-03T07:47:29.483Z,32.06
2019-01-03T07:48:29.465Z,32.56
2019-01-03T07:49:29.464Z,31.56
2019-01-03T07:50:29.453Z,32.26
2019-01-03T07:51:29.448Z,33.17
2019-01-03T07:52:29.423Z,33.17
2019-01-03T07:53:29.411Z,32.36
2019-01-03T07:54:29.410Z,32.97
2019-01-03T07:55:29.389Z,32.18
2019-01-03T07:56:29.412Z,32.18
2019-01-03T07:57:29.407Z,32.58
2019-01-03T07:58:29.398Z,32.88
2019-01-03T07:59:29.346Z,32.18
2019-01-03T08:00:29.380Z,33.20
2019-01-03T08:01:29.332Z,32.39
2019-01-03T08:02:29.315Z,33.00
2019-01-03T08:03:29.317Z,32.90
2019-01-03T08:04:29.326Z,32.90
2019-01-03T08:05:29.314Z,32.59
2019-01-03T08:06:29.275Z,34.12
2019-01-03T08:07:29.270Z,33.22
2019-01-03T08:08:29.253Z,33.11
2019-01-03T08:09:29.238Z,33.82
2019-01-03T08:10:29.238Z,34.22
2019-01-03T08:11:29.217Z,34.22
2019-01-03T08:12:29.208Z,34.42
2019-01-03T08:13:29.198Z,34.42
2019-01-03T08:14:29.194Z,33.92
2019-01-03T08:15:29.189Z,34.02
2019-01-03T08:16:29.164Z,33.31
2019-01-03T08:17:29.156Z,33.20
2019-01-03T08:18:29.147Z,32.90
2019-01-03T08:19:29.155Z,33.30
2019-01-03T08:20:29.132Z,33.00
2019-01-03T08:21:29.111Z,32.59
2019-01-03T08:22:29.102Z,32.98
2019-01-03T08:23:29.087Z,32.38
2019-01-03T08:24:29.085Z,32.76
2019-01-03T08:25:29.070Z,32.58
2019-01-03T08:26:29.061Z,32.46
2019-01-03T08:27:29.058Z,32.67
2019-01-03T08:28:29.044Z,32.46
2019-01-03T08:29:29.025Z,32.56
2019-01-03T08:30:29.022Z,32.55
2019-01-03T08:31:29.016Z,31.93
2019-01-03T08:32:28.993Z,31.92
2019-01-03T08:33:28.987Z,32.12
2019-01-03T08:34:28.985Z,31.41
2019-01-03T08:35:28.962Z,31.31
2019-01-03T08:36:28.952Z,31.10
2019-01-03T08:37:28.949Z,30.60
2019-01-03T08:38:28.942Z,31.30
2019-01-03T08:39:28.956Z,31.18
2019-01-03T08:40:28.929Z,31.18
2019-01-03T08:41:28.900Z,30.88
2019-01-03T08:42:28.893Z,31.18
2019-01-03T08:43:28.886Z,31.09
2019-01-03T08:44:28.870Z,30.88
2019-01-03T08:45:28.867Z,30.88
2019-01-03T08:46:28.846Z,31.29
2019-01-03T08:47:28.837Z,30.27
2019-01-03T08:48:28.824Z,30.77
2019-01-03T08:49:28.811Z,30.87
2019-01-03T08:50:29.126Z,31.07
2019-01-03T08:51:28.801Z,30.67
2019-01-03T08:52:28.910Z,30.67
2019-01-03T08:53:28.780Z,30.87
2019-01-03T08:54:28.771Z,30.36
2019-01-03T08:55:28.793Z,31.27
2019-01-03T08:56:28.753Z,31.18
2019-01-03T08:57:28.735Z,30.78
2019-01-03T08:58:28.715Z,30.98
2019-01-03T08:59:28.721Z,31.48
2019-01-03T09:00:28.721Z,30.88
2019-01-03T09:01:28.734Z,30.98
2019-01-03T09:02:28.693Z,31.40
2019-01-03T09:03:28.667Z,31.10
2019-01-03T09:04:28.655Z,30.90
2019-01-03T09:05:28.669Z,31.00
2019-01-03T09:06:28.640Z,31.51
2019-01-03T09:07:28.633Z,31.21
2019-01-03T09:08:28.630Z,31.92
2019-01-03T09:09:28.600Z,32.32
2019-01-03T09:10:28.622Z,32.14
2019-01-03T09:11:28.587Z,32.33
2019-01-03T09:12:28.634Z,31.73
2019-01-03T09:13:28.561Z,32.24
2019-01-03T09:14:28.562Z,32.24
2019-01-03T09:15:28.551Z,33.17
2019-01-03T09:16:28.548Z,33.17
2019-01-03T09:17:28.526Z,32.26
2019-01-03T09:18:28.514Z,32.17
2019-01-03T09:19:28.499Z,32.76
2019-01-03T09:20:28.492Z,32.98
2019-01-03T09:21:28.486Z,33.89
2019-01-03T09:22:28.472Z,33.79
2019-01-03T09:23:28.456Z,34.09
2019-01-03T09:24:28.457Z,34.49
2019-01-03T09:25:28.435Z,33.99
2019-01-03T09:26:28.431Z,34.09
2019-01-03T09:27:28.443Z,33.99
2019-01-03T09:28:28.406Z,33.89
2019-01-03T09:29:28.398Z,33.80
2019-01-03T09:30:28.387Z,33.60
2019-01-03T09:31:28.375Z,34.09
2019-01-03T09:32:28.370Z,34.31
2019-01-03T09:33:28.360Z,34.09
2019-01-03T09:34:28.343Z,33.91
2019-01-03T09:35:28.336Z,34.11
2019-01-03T09:36:28.317Z,34.31
2019-01-03T09:37:28.316Z,34.31
2019-01-03T09:38:28.308Z,34.20
2019-01-03T09:39:28.289Z,33.60
2019-01-03T09:40:28.283Z,34.09
2019-01-03T09:41:28.268Z,34.19
2019-01-03T09:42:28.264Z,33.99
2019-01-03T09:43:28.290Z,34.39
2019-01-03T09:44:28.239Z,33.48
2019-01-03T09:45:28.223Z,33.59
2019-01-03T09:46:28.212Z,33.89
2019-01-03T09:47:28.306Z,34.09
2019-01-03T09:48:28.202Z,33.77
2019-01-03T09:49:28.189Z,33.97
2019-01-03T09:50:28.185Z,34.07
2019-01-03T09:51:28.240Z,32.76
2019-01-03T09:52:28.179Z,33.37
2019-01-03T09:53:28.132Z,33.27
2019-01-03T09:54:28.149Z,33.25
2019-01-03T09:55:28.131Z,33.04
2019-01-03T09:56:28.111Z,33.23
2019-01-03T09:57:28.104Z,32.14
2019-01-03T09:58:28.103Z,32.64
2019-01-03T09:59:28.071Z,32.52
2019-01-03T10:00:28.069Z,32.53
2019-01-03T10:01:28.053Z,32.02
2019-01-03T10:02:28.049Z,32.21
2019-01-03T10:03:28.033Z,32.50
2019-01-03T10:04:28.018Z,32.50
2019-01-03T10:05:28.021Z,32.30
2019-01-03T10:06:28.005Z,31.90
2019-01-03T10:07:27.987Z,32.00
2019-01-03T10:08:27.989Z,32.60
2019-01-03T10:09:27.993Z,32.40
2019-01-03T10:10:27.954Z,32.40
2019-01-03T10:11:27.952Z,32.81
2019-01-03T10:12:27.938Z,32.30
2019-01-03T10:13:27.952Z,32.40
2019-01-03T10:14:27.921Z,32.21
2019-01-03T10:15:27.909Z,31.71
2019-01-03T10:16:27.899Z,32.52
2019-01-03T10:17:27.888Z,32.52
2019-01-03T10:18:27.876Z,32.52
2019-01-03T10:19:27.873Z,32.62
2019-01-03T10:20:27.867Z,32.32
2019-01-03T10:21:27.850Z,32.64
2019-01-03T10:22:27.844Z,32.21
2019-01-03T10:23:27.828Z,32.64
2019-01-03T10:24:27.813Z,32.55
2019-01-03T10:25:27.801Z,32.45
2019-01-03T10:26:27.888Z,32.85
2019-01-03T10:27:27.821Z,32.55
2019-01-03T10:28:27.770Z,34.07
2019-01-03T10:29:27.831Z,34.17
2019-01-03T10:30:28.286Z,34.06
2019-01-03T10:31:27.926Z,34.07
2019-01-03T10:32:27.796Z,34.06
2019-01-03T10:33:27.891Z,34.47
2019-01-03T10:34:27.714Z,33.87
2019-01-03T10:35:27.703Z,33.55
2019-01-03T10:36:27.689Z,34.36
2019-01-03T10:37:27.972Z,33.95
2019-01-03T10:38:27.896Z,33.54
2019-01-03T10:39:27.780Z,33.54
2019-01-03T10:40:27.716Z,33.81
2019-01-03T10:41:27.650Z,32.60
2019-01-03T10:42:28.000Z,32.20
2019-01-03T10:43:27.658Z,32.30
2019-01-03T10:44:27.629Z,32.89
2019-01-03T10:45:27.651Z,32.17
2019-01-03T10:46:27.597Z,32.77
2019-01-03T10:47:27.578Z,31.47
2019-01-03T10:48:27.570Z,32.04
2019-01-03T10:49:27.561Z,32.04
2019-01-03T10:50:27.546Z,31.24
2019-01-03T10:51:27.598Z,31.02
2019-01-03T10:52:27.881Z,31.43
2019-01-03T10:53:29.024Z,31.01
2019-01-03T10:54:27.509Z,30.99
2019-01-03T10:55:27.769Z,31.10
2019-01-03T10:56:27.605Z,31.29
2019-01-03T10:57:27.542Z,30.69
2019-01-03T10:58:27.721Z,30.69
2019-01-03T10:59:28.076Z,30.79
2019-01-03T11:00:28.314Z,30.90
2019-01-03T11:01:27.645Z,31.29
2019-01-03T11:02:27.870Z,30.99
2019-01-03T11:03:29.793Z,30.29
2019-01-03T11:04:27.475Z,29.98
2019-01-03T11:05:27.443Z,30.98
2019-01-03T11:06:27.373Z,30.08
2019-01-03T11:07:27.442Z,30.88
2019-01-03T11:08:27.402Z,30.88
2019-01-03T11:09:27.416Z,30.68
2019-01-03T11:10:27.375Z,30.88
2019-01-03T11:11:27.349Z,30.78
2019-01-03T11:12:27.312Z,30.28
2019-01-03T11:13:27.394Z,29.99
2019-01-03T11:14:27.367Z,30.60
2019-01-03T11:15:27.319Z,31.29
2019-01-03T11:16:27.364Z,31.11
2019-01-03T11:17:27.454Z,30.99
2019-01-03T11:18:27.535Z,30.51
2019-01-03T11:19:27.413Z,31.51
2019-01-03T11:20:27.237Z,31.32
2019-01-03T11:21:27.228Z,31.12
2019-01-03T11:22:27.285Z,30.82
2019-01-03T11:23:27.231Z,30.84
2019-01-03T11:24:27.187Z,30.84
2019-01-03T11:25:27.187Z,30.64
2019-01-03T11:26:27.174Z,30.84
2019-01-03T11:27:27.179Z,30.85
2019-01-03T11:28:27.148Z,31.05
2019-01-03T11:29:27.141Z,31.15
2019-01-03T11:30:27.143Z,31.17
2019-01-03T11:31:27.191Z,31.97
2019-01-03T11:32:27.104Z,31.87
2019-01-03T11:33:27.151Z,31.48
2019-01-03T11:34:27.145Z,32.09
2019-01-03T11:35:27.069Z,32.20
2019-01-03T11:36:27.074Z,32.90
2019-01-03T11:37:27.052Z,32.40
2019-01-03T11:38:27.037Z,32.72
2019-01-03T11:39:27.040Z,32.82
2019-01-03T11:40:27.047Z,32.72
2019-01-03T11:41:27.015Z,34.02
2019-01-03T11:42:27.441Z,33.22
2019-01-03T11:43:26.988Z,34.02
2019-01-03T11:44:27.081Z,33.42
2019-01-03T11:45:26.987Z,34.02
2019-01-03T11:46:26.976Z,33.52
2019-01-03T11:47:27.296Z,33.00
2019-01-03T11:48:27.154Z,32.40
2019-01-03T11:49:27.304Z,32.60
2019-01-03T11:50:26.942Z,33.09
2019-01-03T11:51:26.914Z,33.17
2019-01-03T11:52:26.953Z,31.77
2019-01-03T11:53:26.892Z,32.37
2019-01-03T11:54:26.887Z,31.77
2019-01-03T11:55:26.870Z,31.47
2019-01-03T11:56:26.856Z,32.07
2019-01-03T11:57:26.839Z,31.56
2019-01-03T11:58:26.831Z,31.94
2019-01-03T11:59:26.818Z,31.94
2019-01-03T12:00:26.872Z,32.24
2019-01-03T12:01:26.813Z,32.34
2019-01-03T12:02:26.787Z,31.12
2019-01-03T12:03:26.827Z,31.93
2019-01-03T12:04:26.771Z,31.52
2019-01-03T12:05:26.752Z,31.32
2019-01-03T12:06:26.759Z,31.31
2019-01-03T12:07:26.927Z,31.02
2019-01-03T12:08:26.736Z,31.43
2019-01-03T12:09:26.787Z,32.12
2019-01-03T12:10:26.740Z,31.74
2019-01-03T12:11:26.739Z,32.23
2019-01-03T12:12:26.719Z,30.91
2019-01-03T12:13:26.699Z,31.01
2019-01-03T12:14:26.679Z,30.69
2019-01-03T12:15:26.663Z,31.10
2019-01-03T12:16:26.661Z,31.18
2019-01-03T12:17:26.640Z,31.18
2019-01-03T12:18:26.675Z,30.58
2019-01-03T12:19:26.736Z,30.96
2019-01-03T12:20:26.607Z,31.16
2019-01-03T12:21:26.594Z,30.77
2019-01-03T12:22:26.590Z,30.78
2019-01-03T12:23:26.614Z,30.87
2019-01-03T12:24:30.554Z,30.18
2019-01-03T12:25:26.544Z,30.68
2019-01-03T12:26:26.550Z,30.78
2019-01-03T12:27:26.533Z,30.78
2019-01-03T12:28:26.527Z,30.98
2019-01-03T12:29:26.532Z,31.18
2019-01-03T12:30:26.535Z,30.79
2019-01-03T12:31:26.542Z,30.99
2019-01-03T12:32:26.483Z,31.21
2019-01-03T12:33:26.462Z,30.91
2019-01-03T12:34:26.476Z,31.21
2019-01-03T12:35:26.480Z,31.51
2019-01-03T12:36:26.439Z,31.91
2019-01-03T12:37:26.414Z,32.12
2019-01-03T12:38:26.616Z,31.52
2019-01-03T12:39:26.406Z,31.52
2019-01-03T12:40:26.412Z,32.43
2019-01-03T12:41:26.420Z,32.73
2019-01-03T12:42:26.418Z,32.43
2019-01-03T12:43:26.443Z,32.24
2019-01-03T12:44:26.434Z,32.54
2019-01-03T12:45:26.407Z,32.44
2019-01-03T12:46:26.388Z,31.76
2019-01-03T12:47:26.407Z,32.46
2019-01-03T12:48:26.348Z,32.56
2019-01-03T12:49:26.307Z,32.86
2019-01-03T12:50:26.290Z,32.67
2019-01-03T12:51:26.288Z,32.47
2019-01-03T12:52:26.280Z,33.78